Time;durP1;ratioP1;P1;durP2;ratioP2;P2;SDS_P1;SDS_P2;PMS_P1;PMS_P2;Temp;Humidity;BMP_temperature;BMP_pressure;BME280_temperature;BME280_humidity;BME280_pressure;Samples;Min_cycle;Max_cycle;Signal;HPM_P1;HPM_P2
2023/05/02 00:00:28;;;;;;;3.72;2.40;;;11.50;53.80;;;;;;5069944;28;20024;-49
2023/05/02 00:02:53;;;;;;;3.08;2.47;;;11.50;53.70;;;;;;5065871;28;20043;-48
2023/05/02 00:05:19;;;;;;;2.47;2.28;;;11.50;53.90;;;;;;5065479;28;20025;-48
2023/05/02 00:07:45;;;;;;;2.78;2.22;;;11.50;53.90;;;;;;5058960;28;20056;-49
2023/05/02 00:10:11;;;;;;;2.70;2.20;;;11.40;53.80;;;;;;5067875;28;20037;-46
2023/05/02 00:12:37;;;;;;;3.00;2.47;;;11.40;53.90;;;;;;5068971;28;20113;-59
2023/05/02 00:15:03;;;;;;;2.28;2.08;;;11.40;54.50;;;;;;5069486;28;20441;-59
2023/05/02 00:17:29;;;;;;;3.42;2.40;;;11.40;53.90;;;;;;5070082;28;20029;-57
2023/05/02 00:19:55;;;;;;;3.10;2.80;;;11.40;53.90;;;;;;5080306;28;20505;-58
2023/05/02 00:22:21;;;;;;;3.15;2.20;;;11.40;54.00;;;;;;5070298;28;20042;-57
2023/05/02 00:24:46;;;;;;;2.30;2.10;;;11.40;54.10;;;;;;5068999;28;20055;-56
2023/05/02 00:27:13;;;;;;;3.30;2.50;;;11.30;54.10;;;;;;5072125;28;20058;-48
2023/05/02 00:29:39;;;;;;;3.65;2.60;;;11.30;54.10;;;;;;5069179;28;20035;-47
2023/05/02 00:32:05;;;;;;;2.85;2.10;;;11.30;54.10;;;;;;5063526;28;20072;-56
2023/05/02 00:34:31;;;;;;;2.50;2.30;;;11.30;54.30;;;;;;5073426;28;20395;-55
2023/05/02 00:36:57;;;;;;;3.47;2.60;;;11.30;54.50;;;;;;5067265;28;20033;-55
2023/05/02 00:39:23;;;;;;;2.90;2.40;;;11.20;54.70;;;;;;5069052;28;20032;-56
2023/05/02 00:41:54;;;;;;;2.35;2.05;;;11.20;54.90;;;;;;5066070;28;20532;-58
2023/05/02 00:44:21;;;;;;;4.10;2.40;;;11.20;55.20;;;;;;5058995;28;20438;-58
2023/05/02 00:46:47;;;;;;;3.08;2.60;;;11.20;55.80;;;;;;5057420;28;20031;-58
2023/05/02 00:49:12;;;;;;;4.15;2.60;;;11.20;55.30;;;;;;5060167;28;20394;-58
2023/05/02 00:51:39;;;;;;;2.47;2.28;;;11.20;55.40;;;;;;5059768;28;20530;-55
2023/05/02 00:54:05;;;;;;;2.67;2.30;;;11.10;55.20;;;;;;5073315;28;20470;-57
2023/05/02 00:56:30;;;;;;;2.60;2.40;;;11.20;55.00;;;;;;5079876;28;20036;-49
2023/05/02 00:58:57;;;;;;;2.83;2.50;;;11.10;54.90;;;;;;5067854;28;20029;-50
2023/05/02 01:01:38;;;;;;;2.65;2.17;;;11.10;55.00;;;;;;5069276;28;20037;-56
2023/05/02 01:04:10;;;;;;;3.33;2.38;;;11.10;54.90;;;;;;5073305;28;20035;-54
2023/05/02 01:06:55;;;;;;;3.67;2.70;;;11.10;55.30;;;;;;5068835;28;20056;-50
2023/05/02 01:09:46;;;;;;;3.67;2.50;;;11.10;55.00;;;;;;5066255;28;20116;-45
2023/05/02 01:12:56;;;;;;;2.20;2.00;;;11.00;54.70;;;;;;5072720;28;20051;-57
2023/05/02 01:15:22;;;;;;;2.80;2.30;;;11.00;54.70;;;;;;5039377;28;20557;-56
2023/05/02 01:17:51;;;;;;;3.40;2.40;;;11.00;54.70;;;;;;5057135;28;20048;-56
2023/05/02 01:20:20;;;;;;;3.40;2.15;;;11.00;54.60;;;;;;5067517;28;20041;-56
2023/05/02 01:22:47;;;;;;;2.30;2.10;;;11.00;54.50;;;;;;5073342;28;20040;-57
2023/05/02 01:25:19;;;;;;;1.98;1.88;;;11.00;54.40;;;;;;5073462;28;20040;-56
2023/05/02 01:27:59;;;;;;;2.40;2.20;;;10.90;54.40;;;;;;5064360;28;20028;-57
2023/05/02 01:30:28;;;;;;;2.97;2.13;;;11.00;54.50;;;;;;5075989;28;20455;-54
2023/05/02 01:32:56;;;;;;;3.65;2.05;;;11.00;54.50;;;;;;5072390;28;20040;-55
2023/05/02 01:35:23;;;;;;;2.25;2.05;;;11.00;54.60;;;;;;5071238;28;20094;-56
2023/05/02 01:37:51;;;;;;;2.95;2.13;;;11.00;54.60;;;;;;5061886;28;20043;-56
2023/05/02 01:40:19;;;;;;;2.72;2.40;;;11.00;54.70;;;;;;5072736;28;20035;-56
2023/05/02 01:42:50;;;;;;;2.50;2.30;;;11.00;54.80;;;;;;5081054;28;20093;-56
2023/05/02 01:45:17;;;;;;;2.97;2.20;;;11.00;54.70;;;;;;5073898;28;20039;-56
2023/05/02 01:47:44;;;;;;;2.45;2.25;;;11.00;54.80;;;;;;5073027;28;20036;-56
2023/05/02 01:50:16;;;;;;;2.28;2.08;;;11.00;54.80;;;;;;5071915;28;20032;-56
2023/05/02 01:52:44;;;;;;;2.60;2.10;;;10.90;54.80;;;;;;5068229;28;20498;-56
2023/05/02 01:55:12;;;;;;;2.65;2.20;;;10.90;55.00;;;;;;5074217;28;20077;-56
2023/05/02 01:57:41;;;;;;;2.42;2.08;;;10.90;55.10;;;;;;5065652;28;20029;-53
2023/05/02 02:00:08;;;;;;;2.42;2.10;;;10.90;55.00;;;;;;5072029;28;20507;-56
2023/05/02 02:02:35;;;;;;;2.67;2.20;;;10.90;54.90;;;;;;5062630;28;20075;-59
2023/05/02 02:05:04;;;;;;;2.85;2.20;;;10.90;55.00;;;;;;5066803;28;20032;-59
2023/05/02 02:07:30;;;;;;;4.40;2.42;;;10.80;54.90;;;;;;5068704;28;20036;-56
2023/05/02 02:09:56;;;;;;;3.03;2.40;;;10.80;54.90;;;;;;5063939;28;20028;-56
2023/05/02 02:12:34;;;;;;;3.55;2.28;;;10.80;54.70;;;;;;5072551;28;20039;-56
2023/05/02 02:15:07;;;;;;;2.92;2.40;;;10.80;54.80;;;;;;5070436;28;20028;-56
2023/05/02 02:17:39;;;;;;;2.30;2.08;;;10.90;54.90;;;;;;5071767;28;20047;-50
2023/05/02 02:20:07;;;;;;;2.30;2.10;;;10.90;54.90;;;;;;5072402;28;20368;-48
2023/05/02 02:22:37;;;;;;;2.10;1.90;;;10.90;54.70;;;;;;5068363;28;20055;-48
2023/05/02 02:25:06;;;;;;;2.60;2.05;;;11.00;54.80;;;;;;5076337;28;20629;-47
2023/05/02 02:27:32;;;;;;;3.97;2.05;;;11.00;54.70;;;;;;5066105;28;20059;-56
2023/05/02 02:29:58;;;;;;;2.45;2.10;;;11.00;54.60;;;;;;5068760;28;20076;-56
2023/05/02 02:32:23;;;;;;;2.35;2.03;;;11.00;54.50;;;;;;5082649;28;20035;-56
2023/05/02 02:34:50;;;;;;;2.50;2.25;;;11.10;54.50;;;;;;5067327;28;20068;-56
2023/05/02 02:37:28;;;;;;;2.38;2.20;;;11.10;54.50;;;;;;5068184;28;20040;-56
2023/05/02 02:40:06;;;;;;;2.42;2.22;;;11.10;54.60;;;;;;5072128;28;20032;-56
2023/05/02 02:42:54;;;;;;;2.30;2.00;;;11.10;54.80;;;;;;5068657;28;20189;-56
2023/05/02 02:45:47;;;;;;;3.85;2.17;;;11.10;54.80;;;;;;5066119;28;20032;-54
2023/05/02 02:48:31;;;;;;;2.10;1.90;;;11.10;54.90;;;;;;5071256;28;20135;-57
2023/05/02 02:51:11;;;;;;;2.42;2.15;;;11.10;54.90;;;;;;5077220;28;20738;-56
2023/05/02 02:53:52;;;;;;;3.63;2.53;;;11.10;55.00;;;;;;5076930;28;20077;-58
2023/05/02 02:56:40;;;;;;;3.13;2.40;;;11.10;55.50;;;;;;5071969;28;20071;-56
2023/05/02 02:59:16;;;;;;;2.58;2.13;;;11.10;55.90;;;;;;5071107;28;20032;-57
2023/05/02 03:01:45;;;;;;;2.58;2.25;;;11.10;56.00;;;;;;5070660;28;20114;-56
2023/05/02 03:04:14;;;;;;;1.90;1.73;;;11.10;55.80;;;;;;5073668;28;20066;-56
2023/05/02 03:06:41;;;;;;;2.58;2.08;;;11.20;55.80;;;;;;5069268;28;20044;-56
2023/05/02 03:09:16;;;;;;;2.92;2.05;;;11.20;55.70;;;;;;5070885;28;20044;-57
2023/05/02 03:11:41;;;;;;;2.35;1.80;;;11.30;55.70;;;;;;5067488;28;20085;-56
2023/05/02 03:14:07;;;;;;;2.20;2.10;;;11.40;55.70;;;;;;5071809;28;20123;-57
2023/05/02 03:16:40;;;;;;;2.00;1.80;;;11.50;55.70;;;;;;5068346;28;20123;-57
2023/05/02 03:19:07;;;;;;;2.30;2.10;;;11.60;55.80;;;;;;5070646;28;20052;-57
2023/05/02 03:21:34;;;;;;;3.70;2.10;;;11.70;55.70;;;;;;5070445;28;20041;-56
2023/05/02 03:24:01;;;;;;;2.72;2.20;;;11.90;55.60;;;;;;5076507;28;20116;-59
2023/05/02 03:26:27;;;;;;;2.25;1.95;;;12.00;55.50;;;;;;5067701;28;20356;-56
2023/05/02 03:28:53;;;;;;;3.72;2.72;;;12.10;55.40;;;;;;5072660;28;20098;-54
2023/05/02 03:31:20;;;;;;;2.50;2.20;;;12.30;55.30;;;;;;5065538;28;20068;-57
2023/05/02 03:33:46;;;;;;;3.58;2.20;;;12.40;55.10;;;;;;5070293;28;20028;-55
2023/05/02 03:36:11;;;;;;;2.55;2.15;;;12.50;55.10;;;;;;5070118;28;20487;-57
2023/05/02 03:38:37;;;;;;;2.10;1.90;;;12.70;55.10;;;;;;5069165;28;20029;-56
2023/05/02 03:41:03;;;;;;;2.30;1.98;;;12.90;55.10;;;;;;5068162;28;20024;-57
2023/05/02 03:43:29;;;;;;;2.08;1.88;;;13.00;55.00;;;;;;5070085;28;20078;-56
2023/05/02 03:45:55;;;;;;;2.15;1.92;;;13.10;55.00;;;;;;5062049;28;20366;-58
2023/05/02 03:48:21;;;;;;;3.20;2.17;;;13.20;54.70;;;;;;5068545;28;20025;-55
2023/05/02 03:50:47;;;;;;;3.03;2.10;;;13.40;54.90;;;;;;5076241;28;20059;-56
2023/05/02 03:53:14;;;;;;;3.53;1.80;;;13.50;54.90;;;;;;5073784;28;20075;-57
2023/05/02 03:55:41;;;;;;;2.83;2.10;;;13.70;55.00;;;;;;5068728;28;20028;-48
2023/05/02 03:58:07;;;;;;;3.10;2.22;;;13.90;55.10;;;;;;5068384;28;20040;-48
2023/05/02 04:00:32;;;;;;;1.58;1.48;;;14.20;55.40;;;;;;5070083;28;20028;-55
2023/05/02 04:03:00;;;;;;;2.03;1.90;;;14.70;55.80;;;;;;5069837;28;20024;-57
2023/05/02 04:05:26;;;;;;;2.35;1.80;;;15.30;55.80;;;;;;5069905;28;20364;-59
2023/05/02 04:07:51;;;;;;;2.13;1.92;;;16.00;55.50;;;;;;5066678;28;20059;-58
2023/05/02 04:10:17;;;;;;;2.35;1.75;;;16.90;54.60;;;;;;5071873;28;20032;-59
2023/05/02 04:12:43;;;;;;;2.83;2.13;;;17.90;53.20;;;;;;5078466;28;20033;-58
2023/05/02 04:15:12;;;;;;;2.28;1.90;;;18.60;51.80;;;;;;5068293;28;20046;-58
2023/05/02 04:17:38;;;;;;;3.15;1.88;;;19.40;50.40;;;;;;5070427;28;20115;-58
2023/05/02 04:20:04;;;;;;;2.42;1.90;;;19.90;49.00;;;;;;5068554;28;20111;-58
2023/05/02 04:22:30;;;;;;;2.58;1.80;;;20.30;47.80;;;;;;5065791;28;20098;-59
2023/05/02 04:24:56;;;;;;;2.80;1.75;;;20.50;47.00;;;;;;5068749;28;20557;-59
2023/05/02 04:27:22;;;;;;;2.47;2.05;;;20.70;46.50;;;;;;5067604;28;20040;-57
2023/05/02 04:29:49;;;;;;;3.70;2.00;;;20.80;45.90;;;;;;5073197;28;20434;-55
2023/05/02 04:32:15;;;;;;;2.00;1.58;;;20.90;45.30;;;;;;5072542;28;20448;-58
2023/05/02 04:34:40;;;;;;;2.28;1.45;;;20.80;45.00;;;;;;5071896;28;20029;-58
2023/05/02 04:37:06;;;;;;;2.75;1.67;;;20.80;44.70;;;;;;5072178;28;20033;-60
2023/05/02 04:39:32;;;;;;;2.22;1.65;;;20.70;44.80;;;;;;5073960;28;20056;-58
2023/05/02 04:41:58;;;;;;;1.60;1.50;;;20.80;44.80;;;;;;5075855;28;20074;-59
2023/05/02 04:44:24;;;;;;;2.92;2.00;;;21.10;44.60;;;;;;5072712;28;20052;-58
2023/05/02 04:46:50;;;;;;;2.45;1.70;;;21.40;44.30;;;;;;5071660;28;20025;-56
2023/05/02 04:49:16;;;;;;;2.38;1.77;;;21.70;44.20;;;;;;5060408;28;20066;-56
2023/05/02 04:51:42;;;;;;;2.08;1.88;;;22.10;44.00;;;;;;5070917;28;20032;-56
2023/05/02 04:54:07;;;;;;;3.05;1.60;;;22.50;44.10;;;;;;5073196;28;20036;-57
2023/05/02 04:56:33;;;;;;;2.30;1.58;;;23.00;43.70;;;;;;5069216;28;20078;-59
2023/05/02 04:58:59;;;;;;;1.77;1.60;;;23.50;43.50;;;;;;5073949;28;20081;-59
2023/05/02 05:01:26;;;;;;;1.67;1.58;;;24.00;42.90;;;;;;5072376;28;20115;-56
2023/05/02 05:03:53;;;;;;;1.88;1.63;;;24.50;42.30;;;;;;5074735;28;20024;-58
2023/05/02 05:06:18;;;;;;;1.25;1.20;;;24.90;41.90;;;;;;5072485;28;20099;-58
2023/05/02 05:08:44;;;;;;;1.92;1.17;;;25.20;41.40;;;;;;5071612;28;20147;-56
2023/05/02 05:11:10;;;;;;;1.75;1.50;;;25.30;41.00;;;;;;5073303;28;20160;-51
2023/05/02 05:13:36;;;;;;;2.90;1.83;;;25.20;40.40;;;;;;5071789;28;20032;-48
2023/05/02 05:16:03;;;;;;;1.67;1.45;;;24.80;39.90;;;;;;5071825;28;20060;-48
2023/05/02 05:18:29;;;;;;;1.70;1.60;;;24.40;39.90;;;;;;5069071;28;20405;-49
2023/05/02 05:20:54;;;;;;;2.45;1.67;;;23.80;40.10;;;;;;5069500;28;20036;-56
2023/05/02 05:23:20;;;;;;;3.30;1.83;;;23.40;40.40;;;;;;5061635;28;20034;-56
2023/05/02 05:25:46;;;;;;;2.38;1.60;;;23.40;40.50;;;;;;5065632;28;20908;-56
2023/05/02 05:28:11;;;;;;;1.70;1.60;;;23.50;39.90;;;;;;5066563;28;20111;-56
2023/05/02 05:30:37;;;;;;;2.50;1.75;;;23.40;39.40;;;;;;5069516;28;20123;-59
2023/05/02 05:33:03;;;;;;;2.92;1.75;;;23.00;39.10;;;;;;5062117;28;20051;-58
2023/05/02 05:35:28;;;;;;;2.25;1.70;;;22.50;39.40;;;;;;5055936;28;20032;-54
2023/05/02 05:37:54;;;;;;;1.98;1.80;;;21.90;39.90;;;;;;5065751;28;20467;-56
2023/05/02 05:40:20;;;;;;;2.95;1.80;;;21.40;40.40;;;;;;5069456;28;20029;-55
2023/05/02 05:42:46;;;;;;;2.80;2.00;;;20.80;40.80;;;;;;5071739;28;20063;-57
2023/05/02 05:45:12;;;;;;;1.90;1.60;;;20.30;41.40;;;;;;5072211;28;20028;-58
2023/05/02 05:47:38;;;;;;;2.80;1.88;;;19.80;41.90;;;;;;5071176;28;20037;-58
2023/05/02 05:50:04;;;;;;;3.20;2.00;;;19.50;42.60;;;;;;5072930;28;20028;-57
2023/05/02 05:52:30;;;;;;;2.10;1.55;;;19.10;43.00;;;;;;5062903;28;20066;-57
2023/05/02 05:54:55;;;;;;;1.77;1.67;;;18.80;43.40;;;;;;5064199;28;20667;-57
2023/05/02 05:57:22;;;;;;;1.95;1.58;;;18.60;43.90;;;;;;5064597;28;20037;-58
2023/05/02 05:59:48;;;;;;;3.00;1.90;;;18.30;44.10;;;;;;5065415;28;20474;-56
2023/05/02 06:02:15;;;;;;;1.63;1.52;;;18.10;44.20;;;;;;5067144;28;20154;-57
2023/05/02 06:04:40;;;;;;;2.75;1.92;;;17.90;44.70;;;;;;5058905;28;21790;-57
2023/05/02 06:07:06;;;;;;;3.50;1.90;;;17.60;44.80;;;;;;5060164;28;20029;-56
2023/05/02 06:09:32;;;;;;;2.08;1.88;;;17.40;45.20;;;;;;5061275;28;20053;-56
2023/05/02 06:11:57;;;;;;;2.00;1.90;;;17.30;45.50;;;;;;5057385;28;20037;-56
2023/05/02 06:14:23;;;;;;;2.45;1.90;;;17.10;45.80;;;;;;5063652;28;20048;-57
2023/05/02 06:16:50;;;;;;;2.42;1.70;;;17.00;46.00;;;;;;5060542;28;20163;-59
2023/05/02 06:19:15;;;;;;;1.70;1.60;;;16.90;46.10;;;;;;5061820;28;20089;-58
2023/05/02 06:21:41;;;;;;;2.58;1.90;;;16.70;46.30;;;;;;5064776;28;20036;-58
2023/05/02 06:24:07;;;;;;;2.97;2.08;;;16.70;46.60;;;;;;5051093;28;20029;-56
2023/05/02 06:26:32;;;;;;;2.10;1.90;;;16.60;46.80;;;;;;5055874;28;20047;-55
2023/05/02 06:28:58;;;;;;;3.08;2.00;;;16.40;47.00;;;;;;5061761;28;20536;-54
2023/05/02 06:31:23;;;;;;;1.83;1.73;;;16.40;47.30;;;;;;5066824;28;20036;-57
2023/05/02 06:33:50;;;;;;;2.55;1.95;;;16.30;47.70;;;;;;5064196;28;20040;-57
2023/05/02 06:36:16;;;;;;;1.80;1.70;;;16.20;47.70;;;;;;5062854;28;20814;-57
2023/05/02 06:38:41;;;;;;;2.03;1.85;;;16.20;47.90;;;;;;5059165;28;20021;-58
2023/05/02 06:41:13;;;;;;;5.03;2.20;;;16.10;48.10;;;;;;5054806;28;20035;-56
2023/05/02 06:43:39;;;;;;;2.30;2.10;;;16.00;48.30;;;;;;5052310;28;20105;-55
2023/05/02 06:46:05;;;;;;;2.45;2.13;;;16.00;48.50;;;;;;5066381;28;20082;-57
2023/05/02 06:48:30;;;;;;;3.00;1.73;;;15.90;48.90;;;;;;5048627;28;20115;-56
2023/05/02 06:50:56;;;;;;;1.90;1.80;;;15.90;49.00;;;;;;5043264;28;20110;-58
2023/05/02 06:53:22;;;;;;;2.63;1.92;;;15.90;49.10;;;;;;5042611;28;20036;-56
2023/05/02 06:55:48;;;;;;;2.25;1.90;;;15.90;49.20;;;;;;5046877;28;20052;-55
2023/05/02 06:58:13;;;;;;;2.53;2.00;;;15.80;49.10;;;;;;5046964;28;20460;-55
2023/05/02 07:00:39;;;;;;;2.20;2.00;;;15.80;49.30;;;;;;5047957;28;20040;-58
2023/05/02 07:03:05;;;;;;;1.80;1.70;;;15.80;49.40;;;;;;5051844;28;20037;-58
2023/05/02 07:05:31;;;;;;;2.40;2.20;;;15.80;49.60;;;;;;5063436;28;20773;-58
2023/05/02 07:07:56;;;;;;;1.70;1.60;;;15.80;49.80;;;;;;5055914;28;20048;-58
2023/05/02 07:10:22;;;;;;;3.13;2.17;;;15.80;49.90;;;;;;5057860;28;20044;-57
2023/05/02 07:12:48;;;;;;;3.00;2.15;;;15.80;50.00;;;;;;5049712;28;20580;-58
2023/05/02 07:15:15;;;;;;;1.95;1.75;;;15.70;50.70;;;;;;5049901;28;20119;-58
2023/05/02 07:17:41;;;;;;;2.15;1.80;;;15.70;50.20;;;;;;5058968;28;20024;-55
2023/05/02 07:20:07;;;;;;;2.20;2.00;;;15.70;50.20;;;;;;5053121;28;20485;-56
2023/05/02 07:22:33;;;;;;;2.63;2.00;;;15.60;50.50;;;;;;5054719;28;20059;-56
2023/05/02 07:25:00;;;;;;;3.13;2.13;;;15.60;50.70;;;;;;5055243;28;20033;-57
2023/05/02 07:27:26;;;;;;;3.03;2.00;;;15.60;50.90;;;;;;5058615;28;20029;-56
2023/05/02 07:29:52;;;;;;;5.10;1.90;;;15.60;51.20;;;;;;5057904;28;20028;-56
2023/05/02 07:32:20;;;;;;;2.00;1.80;;;15.60;51.30;;;;;;5059830;28;20038;-55
2023/05/02 07:34:46;;;;;;;1.92;1.75;;;15.60;51.30;;;;;;5055231;28;20074;-57
2023/05/02 07:37:12;;;;;;;3.03;2.35;;;15.70;51.30;;;;;;5051258;28;20025;-56
2023/05/02 07:39:37;;;;;;;3.42;2.25;;;15.60;52.10;;;;;;5035629;28;21077;-55
2023/05/02 07:42:03;;;;;;;2.00;1.85;;;15.60;51.50;;;;;;5046606;28;20032;-56
2023/05/02 07:44:31;;;;;;;1.80;1.70;;;15.60;51.70;;;;;;5053290;28;20112;-57
2023/05/02 07:46:56;;;;;;;2.85;1.90;;;15.60;52.00;;;;;;5042831;28;20055;-58
2023/05/02 07:49:22;;;;;;;3.15;1.98;;;15.60;52.00;;;;;;5047708;28;20040;-55
2023/05/02 07:51:47;;;;;;;4.22;1.73;;;15.60;52.10;;;;;;5048543;28;20032;-57
2023/05/02 07:54:17;;;;;;;2.25;1.85;;;15.60;52.30;;;;;;5041469;28;20043;-57
2023/05/02 07:56:43;;;;;;;2.58;1.90;;;15.60;52.30;;;;;;5046662;28;20036;-57
2023/05/02 07:59:08;;;;;;;2.08;1.75;;;15.60;52.50;;;;;;5049971;28;20035;-56
2023/05/02 08:01:34;;;;;;;2.78;1.90;;;15.60;52.40;;;;;;5041994;28;20085;-54
2023/05/02 08:04:00;;;;;;;2.13;1.90;;;15.60;52.60;;;;;;5053800;28;20025;-58
2023/05/02 08:06:27;;;;;;;2.58;2.00;;;15.60;52.90;;;;;;5041019;28;20036;-56
2023/05/02 08:08:53;;;;;;;1.90;1.80;;;15.60;52.90;;;;;;5048802;28;20044;-55
2023/05/02 08:11:20;;;;;;;2.35;2.00;;;15.60;53.00;;;;;;5049839;28;20043;-54
2023/05/02 08:13:46;;;;;;;2.55;2.08;;;15.60;53.20;;;;;;5038113;28;20106;-58
2023/05/02 08:16:12;;;;;;;2.35;2.00;;;15.60;53.20;;;;;;5035529;28;20031;-56
2023/05/02 08:18:39;;;;;;;2.15;1.95;;;15.60;53.30;;;;;;5038879;28;20101;-55
2023/05/02 08:21:05;;;;;;;2.85;2.15;;;15.60;53.20;;;;;;5043670;28;20048;-56
2023/05/02 08:23:31;;;;;;;2.38;1.85;;;15.50;53.30;;;;;;5057231;28;20028;-58
2023/05/02 08:25:56;;;;;;;2.20;2.00;;;15.50;53.50;;;;;;5048389;28;20126;-56
2023/05/02 08:28:22;;;;;;;3.03;2.00;;;15.50;53.70;;;;;;5045729;28;20064;-57
2023/05/02 08:30:47;;;;;;;1.88;1.77;;;15.50;53.90;;;;;;5044601;28;20648;-59
2023/05/02 08:33:14;;;;;;;2.33;1.60;;;15.50;53.90;;;;;;5054624;28;20036;-58
2023/05/02 08:35:39;;;;;;;1.95;1.70;;;15.40;53.90;;;;;;5055135;28;20402;-54
2023/05/02 08:38:06;;;;;;;3.40;1.92;;;15.40;54.20;;;;;;5052788;28;20033;-50
2023/05/02 08:40:35;;;;;;;1.90;1.80;;;15.40;54.40;;;;;;5072082;28;21031;-55
2023/05/02 08:43:02;;;;;;;2.25;1.90;;;15.40;54.50;;;;;;5054354;28;20040;-56
2023/05/02 08:45:36;;;;;;;2.42;2.22;;;15.30;54.50;;;;;;5047653;28;20037;-51
2023/05/02 08:48:09;;;;;;;1.95;1.80;;;15.30;54.80;;;;;;5046520;28;20044;-48
2023/05/02 08:50:46;;;;;;;2.20;1.85;;;15.30;55.00;;;;;;5051758;28;20062;-58
2023/05/02 08:53:13;;;;;;;2.40;1.70;;;15.30;54.70;;;;;;5034052;28;20059;-58
2023/05/02 08:55:40;;;;;;;6.28;1.92;;;15.20;54.70;;;;;;5041697;28;20036;-55
2023/05/02 08:58:07;;;;;;;1.90;1.80;;;15.20;54.80;;;;;;5049643;28;20085;-57
2023/05/02 09:00:38;;;;;;;2.20;1.95;;;15.10;55.00;;;;;;5036874;28;20060;-53
2023/05/02 09:03:32;;;;;;;1.80;1.70;;;15.10;55.30;;;;;;5046660;28;20090;-55
2023/05/02 09:06:19;;;;;;;2.35;2.13;;;15.10;55.50;;;;;;5044364;28;20044;-52
2023/05/02 09:08:51;;;;;;;1.80;1.70;;;15.10;55.50;;;;;;5054752;28;20217;-56
2023/05/02 09:11:17;;;;;;;4.03;1.77;;;15.10;55.70;;;;;;5056139;28;20032;-50
2023/05/02 09:13:51;;;;;;;2.75;1.80;;;15.10;55.30;;;;;;5047792;28;20040;-54
2023/05/02 09:16:22;;;;;;;1.60;1.50;;;15.10;55.00;;;;;;5052182;28;20040;-52
2023/05/02 09:18:49;;;;;;;2.67;1.63;;;15.10;54.80;;;;;;5055378;28;20697;-55
2023/05/02 09:21:34;;;;;;;1.88;1.40;;;15.10;54.30;;;;;;5052560;28;20127;-50
2023/05/02 09:24:02;;;;;;;2.28;2.08;;;15.10;53.80;;;;;;5056733;28;20478;-54
2023/05/02 09:26:31;;;;;;;2.40;1.42;;;15.10;53.50;;;;;;5048951;28;20057;-54
2023/05/02 09:28:58;;;;;;;1.42;1.33;;;15.20;53.10;;;;;;5045549;28;20344;-57
2023/05/02 09:31:32;;;;;;;1.50;1.40;;;15.20;52.60;;;;;;5042904;28;20109;-56
2023/05/02 09:34:07;;;;;;;1.77;1.30;;;15.20;52.00;;;;;;5051833;28;20032;-56
2023/05/02 09:36:42;;;;;;;1.13;1.13;;;15.20;51.70;;;;;;5052808;28;20702;-57
2023/05/02 09:39:12;;;;;;;1.70;1.60;;;15.20;52.10;;;;;;5049554;28;20062;-57
2023/05/02 09:41:46;;;;;;;1.60;1.08;;;15.20;50.70;;;;;;5054410;28;20032;-51
2023/05/02 09:44:17;;;;;;;1.58;1.48;;;15.20;50.30;;;;;;5048735;28;20449;-55
2023/05/02 09:46:44;;;;;;;1.20;1.10;;;15.20;49.90;;;;;;5041216;28;20058;-50
2023/05/02 09:49:09;;;;;;;1.45;1.30;;;15.20;49.40;;;;;;5046997;28;20040;-51
2023/05/02 09:51:35;;;;;;;2.40;1.67;;;15.20;48.90;;;;;;5049321;28;20968;-54
2023/05/02 09:54:02;;;;;;;1.08;1.08;;;15.30;48.60;;;;;;5046648;28;20118;-50
2023/05/02 09:56:27;;;;;;;1.73;1.52;;;15.30;48.20;;;;;;5054278;28;20036;-57
2023/05/02 09:59:16;;;;;;;3.08;2.63;;;15.30;47.60;;;;;;5048627;28;20033;-51
2023/05/02 10:01:42;;;;;;;1.67;1.58;;;15.30;47.40;;;;;;5038851;28;20380;-51
2023/05/02 10:04:15;;;;;;;2.13;1.55;;;15.30;47.30;;;;;;5047725;28;20032;-56
2023/05/02 10:06:44;;;;;;;1.58;1.48;;;15.30;47.10;;;;;;5037003;28;20959;-53
2023/05/02 10:09:11;;;;;;;1.40;1.30;;;15.30;46.90;;;;;;5040428;28;20047;-51
2023/05/02 10:11:43;;;;;;;1.30;1.20;;;15.30;46.70;;;;;;5045934;28;20044;-54
2023/05/02 10:14:09;;;;;;;1.60;1.50;;;15.30;46.60;;;;;;5039979;28;20068;-50
2023/05/02 10:16:50;;;;;;;1.45;1.30;;;15.30;46.80;;;;;;5045404;28;20056;-57
2023/05/02 10:19:28;;;;;;;1.40;1.30;;;15.30;46.40;;;;;;5045389;28;20168;-53
2023/05/02 10:21:55;;;;;;;2.45;1.33;;;15.30;47.00;;;;;;5038560;28;20127;-51
2023/05/02 10:24:22;;;;;;;1.40;1.30;;;15.30;46.30;;;;;;5049302;28;20063;-54
2023/05/02 10:26:49;;;;;;;4.55;2.70;;;15.30;46.20;;;;;;5052675;28;20037;-52
2023/05/02 10:29:15;;;;;;;2.85;2.05;;;15.30;46.20;;;;;;5047702;28;20052;-57
2023/05/02 10:31:42;;;;;;;2.95;2.63;;;15.30;45.80;;;;;;5048106;28;20036;-54
2023/05/02 10:34:10;;;;;;;2.30;2.10;;;15.30;45.50;;;;;;5046851;28;20066;-54
2023/05/02 10:36:36;;;;;;;3.40;2.80;;;15.40;45.30;;;;;;5046073;28;20044;-54
2023/05/02 10:39:02;;;;;;;3.03;2.50;;;15.30;45.00;;;;;;5037668;28;22362;-55
2023/05/02 10:41:31;;;;;;;7.03;5.05;;;15.40;45.10;;;;;;5042171;28;20039;-56
2023/05/02 10:43:57;;;;;;;5.38;3.05;;;15.40;45.20;;;;;;5064977;28;20040;-52
2023/05/02 10:46:40;;;;;;;3.03;2.25;;;15.40;45.20;;;;;;5045038;28;20132;-54
2023/05/02 10:49:07;;;;;;;2.55;1.92;;;15.40;45.40;;;;;;5047162;28;20068;-49
2023/05/02 10:51:35;;;;;;;1.80;1.70;;;15.40;45.00;;;;;;5054486;28;20546;-50
2023/05/02 10:54:18;;;;;;;1.40;1.30;;;15.40;45.30;;;;;;5045560;28;20153;-56
2023/05/02 10:57:02;;;;;;;1.33;1.25;;;15.40;45.90;;;;;;5049867;28;20154;-51
2023/05/02 10:59:29;;;;;;;2.17;1.27;;;15.40;46.40;;;;;;5049637;28;20119;-55
2023/05/02 11:01:56;;;;;;;2.45;1.90;;;15.30;46.40;;;;;;5038390;28;20040;-56
2023/05/02 11:04:23;;;;;;;2.88;2.00;;;15.30;46.10;;;;;;5033614;28;20031;-56
2023/05/02 11:07:01;;;;;;;3.40;2.70;;;15.30;45.90;;;;;;5051356;28;20042;-59
2023/05/02 11:09:26;;;;;;;3.40;2.72;;;15.30;46.00;;;;;;5043379;28;22952;-59
2023/05/02 11:11:53;;;;;;;1.90;1.75;;;15.30;46.10;;;;;;5045776;28;20047;-57
2023/05/02 11:14:32;;;;;;;1.92;1.83;;;15.30;46.20;;;;;;5041009;28;20060;-55
2023/05/02 11:17:07;;;;;;;1.73;1.60;;;15.30;46.30;;;;;;5045065;28;20117;-56
2023/05/02 11:19:44;;;;;;;1.77;1.35;;;15.30;46.20;;;;;;5038650;28;20033;-57
2023/05/02 11:22:26;;;;;;;2.47;1.40;;;15.30;46.30;;;;;;5047205;28;20033;-58
2023/05/02 11:24:52;;;;;;;1.77;1.30;;;15.30;46.50;;;;;;5037857;28;20650;-59
2023/05/02 11:27:30;;;;;;;1.40;1.30;;;15.30;46.80;;;;;;5053389;28;20089;-58
2023/05/02 11:29:57;;;;;;;1.75;1.48;;;15.30;46.90;;;;;;5049955;28;20025;-58
2023/05/02 11:32:26;;;;;;;1.20;1.15;;;15.30;47.00;;;;;;5046328;28;21390;-57
2023/05/02 11:34:54;;;;;;;1.67;1.58;;;15.30;46.90;;;;;;5056069;28;20037;-57
2023/05/02 11:37:20;;;;;;;1.67;1.58;;;15.30;46.70;;;;;;5047140;28;20059;-56
2023/05/02 11:39:46;;;;;;;1.42;1.33;;;15.30;46.90;;;;;;5065430;28;20123;-59
2023/05/02 11:42:29;;;;;;;1.90;1.40;;;15.30;47.00;;;;;;5051226;28;20043;-58
2023/05/02 11:44:59;;;;;;;1.80;1.52;;;15.30;47.20;;;;;;5047917;28;20036;-59
2023/05/02 11:47:26;;;;;;;1.95;1.60;;;15.30;47.50;;;;;;5045377;28;20364;-58
2023/05/02 11:49:55;;;;;;;1.55;1.45;;;15.20;47.50;;;;;;5046417;28;20465;-58
2023/05/02 11:52:21;;;;;;;1.30;1.20;;;15.20;47.50;;;;;;5042962;28;20033;-60
2023/05/02 11:54:48;;;;;;;1.80;1.35;;;15.20;47.30;;;;;;5047019;28;20653;-59
2023/05/02 11:57:14;;;;;;;1.70;1.60;;;15.20;47.20;;;;;;5042421;28;20135;-59
2023/05/02 11:59:53;;;;;;;1.33;1.23;;;15.20;47.30;;;;;;5033997;28;20120;-61
2023/05/02 12:02:20;;;;;;;1.48;1.23;;;15.30;47.50;;;;;;5052246;28;20047;-59
2023/05/02 12:04:45;;;;;;;1.58;1.48;;;15.30;47.90;;;;;;5055100;28;20265;-58
2023/05/02 12:07:11;;;;;;;1.45;1.35;;;15.20;48.20;;;;;;5046680;28;20029;-57
2023/05/02 12:09:53;;;;;;;2.45;1.60;;;15.20;48.40;;;;;;5051206;28;20059;-59
2023/05/02 12:12:20;;;;;;;1.40;1.30;;;15.20;48.60;;;;;;5049394;28;20040;-59
2023/05/02 12:14:46;;;;;;;1.23;1.23;;;15.20;48.80;;;;;;5050139;28;20063;-59
2023/05/02 12:17:11;;;;;;;2.22;1.33;;;15.30;48.90;;;;;;5045807;28;20135;-59
2023/05/02 12:19:37;;;;;;;2.08;1.42;;;15.20;48.80;;;;;;5054110;28;20028;-58
2023/05/02 12:22:04;;;;;;;4.35;3.03;;;15.20;48.90;;;;;;5050956;28;20042;-59
2023/05/02 12:24:30;;;;;;;3.28;2.20;;;15.20;49.00;;;;;;5044553;28;20028;-59
2023/05/02 12:27:12;;;;;;;1.88;1.60;;;15.20;48.70;;;;;;5046984;28;21888;-59
2023/05/02 12:29:44;;;;;;;1.98;1.63;;;15.20;48.40;;;;;;5047930;28;20040;-59
2023/05/02 12:32:10;;;;;;;1.38;1.27;;;15.10;48.20;;;;;;5044054;28;20043;-59
2023/05/02 12:34:37;;;;;;;1.80;1.52;;;15.10;48.20;;;;;;5044022;28;20042;-59
2023/05/02 12:37:04;;;;;;;1.63;1.52;;;15.10;48.20;;;;;;5050059;28;20048;-60
2023/05/02 12:39:41;;;;;;;2.13;1.70;;;15.20;48.30;;;;;;5052503;28;20028;-59
2023/05/02 12:42:11;;;;;;;1.50;1.40;;;15.20;48.50;;;;;;5054933;28;20078;-59
2023/05/02 12:44:39;;;;;;;1.83;1.58;;;15.10;48.40;;;;;;5050927;28;20123;-61
2023/05/02 12:47:04;;;;;;;1.50;1.40;;;15.10;48.80;;;;;;5052420;28;20075;-60
2023/05/02 12:49:30;;;;;;;1.38;1.27;;;15.10;49.10;;;;;;5050320;28;20028;-59
2023/05/02 12:51:57;;;;;;;1.52;1.42;;;15.10;49.40;;;;;;5055227;28;20068;-60
2023/05/02 12:54:23;;;;;;;1.75;1.60;;;15.10;49.40;;;;;;5056159;28;20036;-59